createdAt,value
2019-03-17T00:00:37.075Z,97556.44
2019-03-17T00:03:06.489Z,97553.43
2019-03-17T00:05:35.918Z,97546.58
2019-03-17T00:08:05.334Z,97548.83
2019-03-17T00:10:34.725Z,97547.88
2019-03-17T00:13:04.361Z,97533.00
2019-03-17T00:15:33.749Z,97539.73
2019-03-17T00:18:03.167Z,97548.47
2019-03-17T00:20:32.635Z,97544.70
2019-03-17T00:23:02.047Z,97550.45
2019-03-17T00:25:31.540Z,97548.05
2019-03-17T00:28:00.971Z,97541.19
2019-03-17T00:30:30.382Z,97539.58
2019-03-17T00:32:59.851Z,97539.78
2019-03-17T00:35:29.267Z,97526.09
2019-03-17T00:37:58.655Z,97529.97
2019-03-17T00:40:28.080Z,97522.67
2019-03-17T00:42:57.469Z,97514.84
2019-03-17T00:45:26.874Z,97515.06
2019-03-17T00:47:56.282Z,97518.81
2019-03-17T00:50:25.687Z,97515.94
2019-03-17T00:52:55.067Z,97515.17
2019-03-17T00:55:24.478Z,97506.19
2019-03-17T00:57:53.863Z,97509.02
2019-03-17T01:00:23.272Z,97508.94
2019-03-17T01:02:52.668Z,97505.69
2019-03-17T01:05:22.083Z,97509.67
2019-03-17T01:07:51.471Z,97498.91
2019-03-17T01:10:20.898Z,97499.88
2019-03-17T01:12:50.274Z,97501.03
2019-03-17T01:15:19.685Z,97491.66
2019-03-17T01:17:49.085Z,97476.97
2019-03-17T01:20:18.492Z,97474.00
2019-03-17T01:22:47.889Z,97476.45
2019-03-17T01:25:17.299Z,97471.81
2019-03-17T01:27:46.685Z,97469.52
2019-03-17T01:30:16.105Z,97460.56
2019-03-17T01:32:45.478Z,97449.43
2019-03-17T01:35:14.882Z,97449.19
2019-03-17T01:37:44.278Z,97444.02
2019-03-17T01:40:13.842Z,97447.76
2019-03-17T01:42:43.318Z,97453.44
2019-03-17T01:45:12.722Z,97440.11
2019-03-17T01:47:42.114Z,97441.17
2019-03-17T01:50:11.606Z,97431.53
2019-03-17T01:52:41.008Z,97430.13
2019-03-17T01:55:10.486Z,97428.29
2019-03-17T01:57:39.908Z,97425.78
2019-03-17T02:00:13.633Z,97419.29
2019-03-17T02:02:43.040Z,97411.34
2019-03-17T02:05:21.523Z,97414.91
2019-03-17T02:07:43.602Z,97409.19
2019-03-17T02:10:13.340Z,97411.39
2019-03-17T02:12:42.762Z,97407.05
2019-03-17T02:15:12.166Z,97402.37
2019-03-17T02:17:41.576Z,97391.09
2019-03-17T02:20:11.428Z,97397.21
2019-03-17T02:22:40.827Z,97386.20
2019-03-17T02:25:10.211Z,97380.56
2019-03-17T02:27:39.599Z,97385.47
2019-03-17T02:30:11.756Z,97381.40
2019-03-17T02:32:41.157Z,97386.81
2019-03-17T02:35:10.555Z,97387.59
2019-03-17T02:37:39.963Z,97381.67
2019-03-17T02:40:09.516Z,97382.01
2019-03-17T02:42:38.905Z,97383.75
2019-03-17T02:45:09.942Z,97381.28
2019-03-17T02:47:39.337Z,97376.47
2019-03-17T02:50:09.681Z,97376.73
2019-03-17T02:52:39.069Z,97361.74
2019-03-17T02:55:09.523Z,97354.39
2019-03-17T02:57:38.895Z,97362.38
2019-03-17T03:00:11.759Z,97355.42
2019-03-17T03:02:41.165Z,97357.57
2019-03-17T03:05:11.162Z,97357.83
2019-03-17T03:07:40.613Z,97359.67
2019-03-17T03:10:10.455Z,97351.42
2019-03-17T03:12:39.851Z,97356.20
2019-03-17T03:15:09.515Z,97362.25
2019-03-17T03:17:38.912Z,97369.38
2019-03-17T03:20:10.046Z,97365.93
2019-03-17T03:22:39.423Z,97354.89
2019-03-17T03:25:09.683Z,97361.41
2019-03-17T03:27:39.103Z,97364.90
2019-03-17T03:30:13.494Z,97356.59
2019-03-17T03:32:42.949Z,97356.66
2019-03-17T03:35:12.440Z,97354.50
2019-03-17T03:37:41.833Z,97356.25
2019-03-17T03:40:12.590Z,97346.80
2019-03-17T03:42:41.965Z,97347.98
2019-03-17T03:45:12.711Z,97350.11
2019-03-17T03:47:42.093Z,97340.58
2019-03-17T03:50:12.714Z,97353.11
2019-03-17T03:52:42.099Z,97361.25
2019-03-17T03:55:11.589Z,97351.19
2019-03-17T03:57:41.028Z,97348.95
2019-03-17T04:00:16.706Z,97346.47
2019-03-17T04:02:46.140Z,97346.47
2019-03-17T04:05:15.513Z,97347.23
2019-03-17T04:07:44.923Z,97344.08
2019-03-17T04:10:14.418Z,97337.75
2019-03-17T04:12:43.790Z,97341.29
2019-03-17T04:15:13.425Z,97341.37
2019-03-17T04:17:42.816Z,97331.84
2019-03-17T04:20:12.586Z,97335.75
2019-03-17T04:22:42.129Z,97333.99
2019-03-17T04:25:13.351Z,97333.81
2019-03-17T04:27:42.761Z,97330.27
2019-03-17T04:30:12.504Z,97335.17
2019-03-17T04:32:41.919Z,97343.89
2019-03-17T04:35:11.520Z,97341.37
2019-03-17T04:37:40.854Z,97349.67
2019-03-17T04:40:10.695Z,97342.23
2019-03-17T04:42:40.100Z,97350.58
2019-03-17T04:45:09.574Z,97347.94
2019-03-17T04:47:38.951Z,97346.08
2019-03-17T04:50:09.306Z,97335.52
2019-03-17T04:52:38.701Z,97344.62
2019-03-17T04:55:08.437Z,97332.25
2019-03-17T04:57:37.841Z,97323.06
2019-03-17T05:00:10.558Z,97326.98
2019-03-17T05:02:39.946Z,97327.45
2019-03-17T05:05:09.609Z,97328.82
2019-03-17T05:07:39.055Z,97327.34
2019-03-17T05:10:10.336Z,97335.22
2019-03-17T05:12:39.690Z,97330.84
2019-03-17T05:15:10.753Z,97330.84
2019-03-17T05:17:40.142Z,97323.42
2019-03-17T05:20:10.796Z,97325.61
2019-03-17T05:22:40.177Z,97313.77
2019-03-17T05:25:09.662Z,97315.61
2019-03-17T05:27:39.152Z,97313.77
2019-03-17T05:30:10.667Z,97309.30
2019-03-17T05:32:40.145Z,97314.68
2019-03-17T05:35:10.086Z,97315.44
2019-03-17T05:37:39.542Z,97312.39
2019-03-17T05:40:12.317Z,97308.09
2019-03-17T05:42:41.780Z,97323.83
2019-03-17T05:45:11.253Z,97320.25
2019-03-17T05:47:40.710Z,97317.20
2019-03-17T05:50:10.753Z,97320.88
2019-03-17T05:52:40.158Z,97316.67
2019-03-17T05:55:10.190Z,97315.78
2019-03-17T05:57:39.586Z,97319.38
2019-03-17T06:00:17.204Z,97318.87
2019-03-17T06:02:46.594Z,97322.45
2019-03-17T06:05:16.004Z,97320.27
2019-03-17T06:07:45.457Z,97331.20
2019-03-17T06:10:14.883Z,97336.88
2019-03-17T06:12:44.275Z,97331.20
2019-03-17T06:15:13.726Z,97349.15
2019-03-17T06:17:43.137Z,97341.29
2019-03-17T06:20:13.083Z,97353.90
2019-03-17T06:22:42.498Z,97344.23
2019-03-17T06:25:12.131Z,97341.20
2019-03-17T06:27:41.547Z,97333.22
2019-03-17T06:30:12.987Z,97345.94
2019-03-17T06:32:42.494Z,97327.97
2019-03-17T06:35:11.999Z,97331.30
2019-03-17T06:37:41.395Z,97329.26
2019-03-17T06:40:15.105Z,97338.26
2019-03-17T06:42:44.527Z,97334.56
2019-03-17T06:45:13.911Z,97343.12
2019-03-17T06:47:43.313Z,97333.25
2019-03-17T06:50:14.741Z,97325.45
2019-03-17T06:52:44.160Z,97334.23
2019-03-17T06:55:15.755Z,97331.46
2019-03-17T06:57:45.184Z,97333.95
2019-03-17T07:00:14.915Z,97330.63
2019-03-17T07:02:44.325Z,97350.56
2019-03-17T07:05:13.714Z,97346.84
2019-03-17T07:07:44.759Z,97352.09
2019-03-17T07:10:14.478Z,97349.97
2019-03-17T07:12:43.909Z,97351.38
2019-03-17T07:15:13.440Z,97346.98
2019-03-17T07:17:42.881Z,97347.77
2019-03-17T07:20:13.719Z,97350.25
2019-03-17T07:22:43.225Z,97354.64
2019-03-17T07:25:12.752Z,97353.66
2019-03-17T07:27:42.232Z,97350.59
2019-03-17T07:30:13.741Z,97354.95
2019-03-17T07:32:43.165Z,97345.30
2019-03-17T07:35:12.628Z,97354.42
2019-03-17T07:37:42.048Z,97343.20
2019-03-17T07:40:12.584Z,97348.54
2019-03-17T07:42:42.017Z,97357.30
2019-03-17T07:45:12.273Z,97349.80
2019-03-17T07:47:41.675Z,97357.98
2019-03-17T07:50:14.445Z,97359.09
2019-03-17T07:52:43.866Z,97350.38
2019-03-17T07:55:13.338Z,97356.92
2019-03-17T07:57:42.770Z,97366.06
2019-03-17T08:00:15.402Z,97362.27
2019-03-17T08:02:44.819Z,97359.58
2019-03-17T08:05:14.218Z,97364.27
2019-03-17T08:07:43.634Z,97370.52
2019-03-17T08:10:14.950Z,97365.82
2019-03-17T08:12:44.349Z,97358.47
2019-03-17T08:15:14.581Z,97362.02
2019-03-17T08:17:44.010Z,97358.86
2019-03-17T08:20:14.156Z,97344.66
2019-03-17T08:22:43.646Z,97333.27
2019-03-17T08:25:13.163Z,97341.94
2019-03-17T08:27:42.541Z,97337.64
2019-03-17T08:30:16.100Z,97350.04
2019-03-17T08:32:45.567Z,97368.33
2019-03-17T08:35:15.041Z,97363.58
2019-03-17T08:37:44.531Z,97355.36
2019-03-17T08:40:16.194Z,97361.00
2019-03-17T08:42:45.610Z,97355.18
2019-03-17T08:45:15.350Z,97362.33
2019-03-17T08:47:56.763Z,97349.95
2019-03-17T08:50:16.052Z,97363.46
2019-03-17T08:52:45.470Z,97373.63
2019-03-17T08:55:14.981Z,97367.73
2019-03-17T08:57:44.403Z,97366.33
2019-03-17T09:00:18.582Z,97364.80
2019-03-17T09:02:48.069Z,97376.70
2019-03-17T09:05:17.468Z,97374.55
2019-03-17T09:07:46.906Z,97378.23
2019-03-17T09:10:16.665Z,97383.59
2019-03-17T09:12:46.143Z,97382.48
2019-03-17T09:15:15.630Z,97388.27
2019-03-17T09:17:45.052Z,97397.48
2019-03-17T09:20:14.934Z,97388.01
2019-03-17T09:22:44.350Z,97386.98
2019-03-17T09:25:13.806Z,97391.38
2019-03-17T09:27:43.252Z,97389.28
2019-03-17T09:30:16.838Z,97389.26
2019-03-17T09:32:46.266Z,97377.13
2019-03-17T09:35:15.729Z,97377.30
2019-03-17T09:37:45.154Z,97373.66
2019-03-17T09:40:15.694Z,97385.97
2019-03-17T09:42:45.111Z,97393.63
2019-03-17T09:45:15.475Z,97384.18
2019-03-17T09:47:44.928Z,97389.95
2019-03-17T09:50:15.383Z,97388.39
2019-03-17T09:52:44.786Z,97399.45
2019-03-17T09:55:14.209Z,97399.78
2019-03-17T09:57:43.688Z,97402.44
2019-03-17T10:00:17.422Z,97400.11
2019-03-17T10:02:46.769Z,97403.61
2019-03-17T10:05:16.384Z,97396.08
2019-03-17T10:07:45.784Z,97399.19
2019-03-17T10:10:16.741Z,97397.39
2019-03-17T10:12:46.161Z,97393.63
2019-03-17T10:15:17.007Z,97394.19
2019-03-17T10:17:46.422Z,97387.06
2019-03-17T10:20:17.920Z,97394.55
2019-03-17T10:22:47.491Z,97423.58
2019-03-17T10:25:16.985Z,97454.42
2019-03-17T10:27:46.526Z,97459.88
2019-03-17T10:30:19.678Z,97469.09
2019-03-17T10:32:49.117Z,97486.55
2019-03-17T10:35:18.579Z,97500.83
2019-03-17T10:37:47.974Z,97509.84
2019-03-17T10:40:19.401Z,97520.52
2019-03-17T10:42:48.802Z,97537.27
2019-03-17T10:45:18.376Z,97522.60
2019-03-17T10:47:47.772Z,97531.04
2019-03-17T10:50:19.160Z,97538.77
2019-03-17T10:52:48.624Z,97541.34
2019-03-17T10:55:18.104Z,97551.98
2019-03-17T10:57:47.503Z,97561.72
2019-03-17T11:00:18.365Z,97568.72
2019-03-17T11:02:47.778Z,97576.35
2019-03-17T11:05:17.430Z,97579.02
2019-03-17T11:07:46.819Z,97578.64
2019-03-17T11:10:16.588Z,97576.45
2019-03-17T11:12:46.119Z,97566.08
2019-03-17T11:15:20.599Z,97572.19
2019-03-17T11:17:49.993Z,97575.95
2019-03-17T11:20:19.636Z,97589.39
2019-03-17T11:22:49.034Z,97595.34
2019-03-17T11:25:19.798Z,97600.16
2019-03-17T11:27:49.195Z,97608.56
2019-03-17T11:30:20.734Z,97613.81
2019-03-17T11:32:50.103Z,97615.06
2019-03-17T11:35:19.510Z,97617.52
2019-03-17T11:37:48.911Z,97617.80
2019-03-17T11:40:19.266Z,97622.53
2019-03-17T11:42:50.134Z,97626.54
2019-03-17T11:45:19.931Z,97634.40
2019-03-17T11:47:49.430Z,97628.48
2019-03-17T11:50:20.665Z,97622.87
2019-03-17T11:52:50.302Z,97621.08
2019-03-17T11:55:19.768Z,97611.36
2019-03-17T11:57:49.582Z,97625.39
2019-03-17T12:00:20.637Z,97640.73
2019-03-17T12:02:50.016Z,97627.03
2019-03-17T12:05:19.492Z,97630.53
2019-03-17T12:07:48.899Z,97627.29
2019-03-17T12:10:20.491Z,97632.86
2019-03-17T12:12:49.965Z,97611.62
2019-03-17T12:15:28.010Z,97610.27
2019-03-17T12:17:57.471Z,97608.91
2019-03-17T12:20:26.906Z,97614.95
2019-03-17T12:22:56.465Z,97623.50
2019-03-17T12:25:25.866Z,97624.81
2019-03-17T12:27:55.256Z,97633.69
2019-03-17T12:30:26.663Z,97620.52
2019-03-17T12:32:56.324Z,97618.00
2019-03-17T12:35:25.729Z,97634.62
2019-03-17T12:37:55.132Z,97618.77
2019-03-17T12:40:24.529Z,97611.64
2019-03-17T12:42:55.978Z,97618.67
2019-03-17T12:45:25.768Z,97629.91
2019-03-17T12:47:55.151Z,97616.45
2019-03-17T12:50:26.658Z,97625.80
2019-03-17T12:52:56.053Z,97620.48
2019-03-17T12:55:25.463Z,97623.33
2019-03-17T12:57:54.890Z,97638.50
2019-03-17T13:00:26.288Z,97629.84
2019-03-17T13:02:55.703Z,97644.83
2019-03-17T13:05:25.881Z,97634.12
2019-03-17T13:07:55.465Z,97635.14
2019-03-17T13:10:24.860Z,97639.61
2019-03-17T13:12:54.272Z,97637.33
2019-03-17T13:15:23.665Z,97634.01
2019-03-17T13:17:53.092Z,97633.38
2019-03-17T13:20:22.507Z,97627.25
2019-03-17T13:22:51.927Z,97631.61
2019-03-17T13:25:21.339Z,97624.61
2019-03-17T13:27:50.789Z,97624.88
2019-03-17T13:30:20.257Z,97624.83
2019-03-17T13:32:49.680Z,97617.68
2019-03-17T13:35:19.091Z,97620.19
2019-03-17T13:37:48.508Z,97623.33
2019-03-17T13:40:29.523Z,97623.16
2019-03-17T13:42:52.277Z,97624.80
2019-03-17T13:45:21.678Z,97629.54
2019-03-17T13:47:53.082Z,97636.54
2019-03-17T13:50:23.350Z,97673.70
2019-03-17T13:52:52.772Z,97667.44
2019-03-17T13:55:22.188Z,97666.02
2019-03-17T13:58:00.280Z,97667.69
2019-03-17T14:00:29.705Z,97678.65
2019-03-17T14:02:59.125Z,97679.91
2019-03-17T14:05:28.527Z,97688.64
2019-03-17T14:07:57.928Z,97683.70
2019-03-17T14:10:27.329Z,97681.91
2019-03-17T14:12:56.751Z,97691.30
2019-03-17T14:15:26.155Z,97685.72
2019-03-17T14:17:55.626Z,97686.02
2019-03-17T14:20:25.016Z,97685.14
2019-03-17T14:22:54.422Z,97682.95
2019-03-17T14:25:32.051Z,97684.03
2019-03-17T14:28:01.523Z,97677.44
2019-03-17T14:30:30.893Z,97678.81
2019-03-17T14:33:00.354Z,97689.03
2019-03-17T14:35:29.838Z,97701.85
2019-03-17T14:37:59.250Z,97685.61
2019-03-17T14:40:28.630Z,97688.11
2019-03-17T14:42:58.150Z,97693.31
2019-03-17T14:45:27.814Z,97690.67
2019-03-17T14:47:57.251Z,97706.93
2019-03-17T14:50:26.699Z,97703.23
2019-03-17T14:52:56.207Z,97713.33
2019-03-17T14:55:25.662Z,97708.85
2019-03-17T14:57:55.109Z,97713.80
2019-03-17T15:00:25.239Z,97714.57
2019-03-17T15:02:54.648Z,97723.05
2019-03-17T15:05:25.406Z,97712.92
2019-03-17T15:07:55.136Z,97721.84
2019-03-17T15:10:25.578Z,97718.76
2019-03-17T15:12:54.991Z,97744.61
2019-03-17T15:15:24.374Z,97749.72
2019-03-17T15:17:53.790Z,97757.19
2019-03-17T15:20:29.146Z,97768.02
2019-03-17T15:22:58.577Z,97770.16
2019-03-17T15:25:29.443Z,97769.02
2019-03-17T15:27:58.865Z,97775.65
2019-03-17T15:30:30.471Z,97787.84
2019-03-17T15:32:59.915Z,97789.86
2019-03-17T15:35:29.406Z,97780.22
2019-03-17T15:37:58.816Z,97781.78
2019-03-17T15:40:28.222Z,97789.72
2019-03-17T15:42:57.629Z,97787.33
2019-03-17T15:45:27.201Z,97784.58
2019-03-17T15:47:56.633Z,97800.13
2019-03-17T15:50:30.121Z,97799.09
2019-03-17T15:52:59.535Z,97811.60
2019-03-17T15:55:28.999Z,97810.80
2019-03-17T15:57:58.429Z,97811.42
2019-03-17T16:00:27.807Z,97800.97
2019-03-17T16:02:57.289Z,97820.61
2019-03-17T16:05:26.749Z,97814.57
2019-03-17T16:07:56.263Z,97819.42
2019-03-17T16:10:28.653Z,97808.50
2019-03-17T16:12:58.085Z,97816.36
2019-03-17T16:15:27.449Z,97832.84
2019-03-17T16:17:56.914Z,97845.09
2019-03-17T16:20:27.163Z,97844.44
2019-03-17T16:22:56.713Z,97844.16
2019-03-17T16:25:28.296Z,97853.39
2019-03-17T16:27:57.789Z,97848.03
2019-03-17T16:30:29.102Z,97849.68
2019-03-17T16:32:58.619Z,97852.20
2019-03-17T16:35:28.034Z,97873.16
2019-03-17T16:37:57.439Z,97867.47
2019-03-17T16:40:28.260Z,97867.19
2019-03-17T16:42:57.754Z,97879.25
2019-03-17T16:45:27.219Z,97878.17
2019-03-17T16:47:56.874Z,97885.43
2019-03-17T16:50:26.277Z,97890.09
2019-03-17T16:52:55.701Z,97882.84
2019-03-17T16:55:26.594Z,97898.67
2019-03-17T16:57:55.987Z,97904.88
2019-03-17T17:00:26.109Z,97913.68
2019-03-17T17:02:55.605Z,97923.41
2019-03-17T17:05:26.284Z,97924.73
2019-03-17T17:07:55.717Z,97916.55
2019-03-17T17:10:28.727Z,97927.53
2019-03-17T17:12:58.298Z,97929.76
2019-03-17T17:15:34.489Z,97926.73
2019-03-17T17:18:04.401Z,97946.39
2019-03-17T17:20:39.021Z,97934.24
2019-03-17T17:23:08.419Z,97946.02
2019-03-17T17:25:37.814Z,97949.97
2019-03-17T17:28:07.227Z,97947.81
2019-03-17T17:30:36.616Z,97947.39
2019-03-17T17:33:06.050Z,97943.52
2019-03-17T17:35:35.438Z,97948.30
2019-03-17T17:38:04.937Z,97954.38
2019-03-17T17:40:34.443Z,97964.91
2019-03-17T17:43:03.871Z,97978.84
2019-03-17T17:45:33.287Z,97970.17
2019-03-17T17:48:02.683Z,97972.32
2019-03-17T17:50:32.924Z,97988.04
2019-03-17T17:53:02.315Z,97999.80
2019-03-17T17:55:31.714Z,98009.84
2019-03-17T17:58:01.165Z,98007.66
2019-03-17T18:00:32.212Z,98008.06
2019-03-17T18:03:01.711Z,98022.01
2019-03-17T18:05:31.524Z,98028.55
2019-03-17T18:08:00.928Z,98034.23
2019-03-17T18:10:30.410Z,98037.72
2019-03-17T18:12:59.834Z,98042.97
2019-03-17T18:15:30.818Z,98049.91
2019-03-17T18:18:00.215Z,98047.77
2019-03-17T18:20:29.707Z,98059.50
2019-03-17T18:22:59.098Z,98064.31
2019-03-17T18:25:28.533Z,98073.47
2019-03-17T18:27:58.021Z,98077.38
2019-03-17T18:30:27.417Z,98077.38
2019-03-17T18:32:56.827Z,98088.27
2019-03-17T18:35:26.222Z,98096.97
2019-03-17T18:37:55.701Z,98100.88
2019-03-17T18:40:25.087Z,98106.09
2019-03-17T18:42:54.494Z,98108.27
2019-03-17T18:45:26.279Z,98115.22
2019-03-17T18:47:57.582Z,98119.08
2019-03-17T18:50:26.792Z,98116.47
2019-03-17T18:52:57.220Z,98117.75
2019-03-17T18:55:26.643Z,98122.54
2019-03-17T18:57:56.072Z,98129.01
2019-03-17T19:00:27.297Z,98132.91
2019-03-17T19:02:56.864Z,98138.56
2019-03-17T19:05:26.253Z,98144.70
2019-03-17T19:07:55.645Z,98150.25
2019-03-17T19:10:25.197Z,98155.94
2019-03-17T19:12:54.880Z,98160.28
2019-03-17T19:15:25.949Z,98149.86
2019-03-17T19:17:55.415Z,98155.02
2019-03-17T19:20:24.979Z,98164.05
2019-03-17T19:22:54.378Z,98167.07
2019-03-17T19:25:25.133Z,98176.62
2019-03-17T19:27:54.607Z,98183.48
2019-03-17T19:30:24.285Z,98179.11
2019-03-17T19:32:53.832Z,98183.42
2019-03-17T19:35:23.249Z,98188.13
2019-03-17T19:37:52.630Z,98193.81
2019-03-17T19:40:23.384Z,98200.73
2019-03-17T19:42:59.379Z,98201.73
2019-03-17T19:45:24.023Z,98208.25
2019-03-17T19:47:53.430Z,98210.37
2019-03-17T19:50:23.295Z,98205.14
2019-03-17T19:52:52.701Z,98211.26
2019-03-17T19:55:22.121Z,98215.61
2019-03-17T19:57:51.580Z,98212.55
2019-03-17T20:00:22.011Z,98210.78
2019-03-17T20:02:51.417Z,98209.37
2019-03-17T20:05:20.826Z,98218.84
2019-03-17T20:07:50.253Z,98221.52
2019-03-17T20:10:31.557Z,98221.92
2019-03-17T20:13:10.895Z,98225.45
2019-03-17T20:15:32.085Z,98228.97
2019-03-17T20:18:01.487Z,98236.88
2019-03-17T20:20:30.888Z,98228.92
2019-03-17T20:23:00.288Z,98242.83
2019-03-17T20:25:29.717Z,98248.92
2019-03-17T20:28:00.529Z,98249.80
2019-03-17T20:30:29.938Z,98253.23
2019-03-17T20:32:59.333Z,98252.38
2019-03-17T20:35:28.739Z,98244.48
2019-03-17T20:37:58.135Z,98248.84
2019-03-17T20:40:27.533Z,98251.41
2019-03-17T20:42:56.922Z,98260.56
2019-03-17T20:45:26.331Z,98259.33
2019-03-17T20:47:55.748Z,98267.55
2019-03-17T20:50:25.312Z,98267.06
2019-03-17T20:52:54.705Z,98271.03
2019-03-17T20:55:24.134Z,98280.63
2019-03-17T20:57:53.513Z,98287.34
2019-03-17T21:00:23.142Z,98298.80
2019-03-17T21:02:52.546Z,98295.66
2019-03-17T21:05:21.952Z,98302.58
2019-03-17T21:07:51.439Z,98311.67
2019-03-17T21:10:20.857Z,98307.27
2019-03-17T21:12:50.251Z,98309.88
2019-03-17T21:15:22.345Z,98304.27
2019-03-17T21:17:51.751Z,98314.76
2019-03-17T21:20:25.624Z,98320.36
2019-03-17T21:22:55.048Z,98324.03
2019-03-17T21:25:24.459Z,98318.37
2019-03-17T21:27:53.945Z,98326.70
2019-03-17T21:30:29.024Z,98327.55
2019-03-17T21:32:58.428Z,98332.66
2019-03-17T21:35:27.851Z,98325.30
2019-03-17T21:37:57.392Z,98334.39
2019-03-17T21:40:26.822Z,98339.11
2019-03-17T21:42:56.489Z,98338.36
2019-03-17T21:45:27.485Z,98344.39
2019-03-17T21:47:57.087Z,98349.98
2019-03-17T21:50:26.510Z,98347.28
2019-03-17T21:52:56.071Z,98344.71
2019-03-17T21:55:25.488Z,98339.86
2019-03-17T21:57:54.867Z,98347.70
2019-03-17T22:00:24.279Z,98353.73
2019-03-17T22:02:55.162Z,98348.91
2019-03-17T22:05:24.777Z,98348.48
2019-03-17T22:07:54.752Z,98352.48
2019-03-17T22:10:24.163Z,98350.41
2019-03-17T22:12:53.549Z,98349.04
2019-03-17T22:15:22.952Z,98347.51
2019-03-17T22:17:52.349Z,98350.50
2019-03-17T22:20:21.759Z,98354.55
2019-03-17T22:22:51.149Z,98355.97
2019-03-17T22:25:20.541Z,98352.17
2019-03-17T22:27:49.956Z,98351.33
2019-03-17T22:30:20.746Z,98352.31
2019-03-17T22:32:50.152Z,98354.08
2019-03-17T22:35:19.556Z,98357.28
2019-03-17T22:37:48.998Z,98361.50
2019-03-17T22:40:19.341Z,98363.79
2019-03-17T22:42:48.743Z,98366.78
2019-03-17T22:45:18.425Z,98364.95
2019-03-17T22:47:47.815Z,98367.59
2019-03-17T22:50:18.074Z,98371.39
2019-03-17T22:52:47.744Z,98371.50
2019-03-17T22:55:17.394Z,98375.19
2019-03-17T22:57:46.786Z,98377.58
2019-03-17T23:00:19.282Z,98371.84
2019-03-17T23:02:48.679Z,98369.06
2019-03-17T23:05:18.149Z,98373.04
2019-03-17T23:07:47.548Z,98375.19
2019-03-17T23:10:16.934Z,98368.52
2019-03-17T23:12:46.334Z,98370.67
2019-03-17T23:15:15.968Z,98368.03
2019-03-17T23:17:45.386Z,98368.06
2019-03-17T23:20:16.016Z,98364.66
2019-03-17T23:22:45.419Z,98364.63
2019-03-17T23:25:15.027Z,98371.09
2019-03-17T23:27:44.442Z,98373.73
2019-03-17T23:30:18.396Z,98371.66
2019-03-17T23:32:49.443Z,98367.27
2019-03-17T23:35:19.331Z,98372.97
2019-03-17T23:37:48.718Z,98366.45
2019-03-17T23:40:18.831Z,98366.27
2019-03-17T23:42:48.199Z,98366.77
2019-03-17T23:45:17.607Z,98358.50
2019-03-17T23:47:47.010Z,98362.83
2019-03-17T23:50:16.484Z,98362.90
2019-03-17T23:52:45.909Z,98356.31
2019-03-17T23:55:15.766Z,98358.03
2019-03-17T23:57:45.148Z,98362.09
